createdAt,value
2017-09-12T00:01:28.330Z,99261.20
2017-09-12T00:03:55.167Z,99256.19
2017-09-12T00:06:22.021Z,99259.03
2017-09-12T00:08:48.831Z,99270.55
2017-09-12T00:11:16.434Z,99253.09
2017-09-12T00:13:43.277Z,99266.41
2017-09-12T00:16:10.866Z,99264.02
2017-09-12T00:18:37.709Z,99269.22
2017-09-12T00:21:05.304Z,99278.96
2017-09-12T00:23:32.181Z,99274.45
2017-09-12T00:25:59.000Z,99275.63
2017-09-12T00:28:25.862Z,99278.66
2017-09-12T00:30:53.439Z,99278.14
2017-09-12T00:33:20.302Z,99280.75
2017-09-12T00:35:47.913Z,99284.95
2017-09-12T00:38:14.759Z,99279.42
2017-09-12T00:40:42.334Z,99285.59
2017-09-12T00:43:09.905Z,99281.92
2017-09-12T00:45:37.511Z,99288.37
2017-09-12T00:48:04.335Z,99281.53
2017-09-12T00:50:31.169Z,99282.53
2017-09-12T00:52:58.040Z,99287.34
2017-09-12T00:55:24.959Z,99286.57
2017-09-12T00:57:51.888Z,99289.52
2017-09-12T01:00:19.527Z,99295.20
2017-09-12T01:02:46.411Z,99290.78
2017-09-12T01:05:13.289Z,99295.47
2017-09-12T01:07:40.938Z,99302.05
2017-09-12T01:10:07.804Z,99299.45
2017-09-12T01:12:34.668Z,99306.38
2017-09-12T01:15:01.547Z,99303.86
2017-09-12T01:17:28.414Z,99307.53
2017-09-12T01:19:56.049Z,99304.92
2017-09-12T01:22:22.968Z,99306.38
2017-09-12T01:24:50.631Z,99304.23
2017-09-12T01:27:17.562Z,99301.42
2017-09-12T01:29:44.485Z,99302.02
2017-09-12T01:32:11.364Z,99304.58
2017-09-12T01:34:38.254Z,99307.59
2017-09-12T01:37:05.113Z,99311.45
2017-09-12T01:39:31.992Z,99315.78
2017-09-12T01:41:58.879Z,99304.52
2017-09-12T01:44:26.526Z,99312.86
2017-09-12T01:46:53.447Z,99311.24
2017-09-12T01:49:20.294Z,99311.41
2017-09-12T01:51:47.131Z,99314.77
2017-09-12T01:54:13.956Z,99317.62
2017-09-12T01:56:40.807Z,99309.25
2017-09-12T01:59:07.642Z,99316.44
2017-09-12T02:01:34.480Z,99322.89
2017-09-12T02:04:02.089Z,99315.38
2017-09-12T02:06:28.917Z,99318.77
2017-09-12T02:08:55.748Z,99320.50
2017-09-12T02:11:22.586Z,99324.30
2017-09-12T02:13:49.442Z,99319.95
2017-09-12T02:16:16.294Z,99319.55
2017-09-12T02:18:43.151Z,99320.09
2017-09-12T02:21:10.036Z,99319.05
2017-09-12T02:23:36.862Z,99315.63
2017-09-12T02:26:03.696Z,99315.98
2017-09-12T02:28:30.549Z,99324.02
2017-09-12T02:30:57.373Z,99321.15
2017-09-12T02:33:24.205Z,99325.47
2017-09-12T02:35:51.764Z,99328.77
2017-09-12T02:38:18.647Z,99324.72
2017-09-12T02:40:46.228Z,99329.73
2017-09-12T02:43:13.062Z,99324.50
2017-09-12T02:45:39.912Z,99317.73
2017-09-12T02:48:06.782Z,99325.06
2017-09-12T02:50:33.611Z,99328.35
2017-09-12T02:53:00.456Z,99336.61
2017-09-12T02:55:27.299Z,99328.16
2017-09-12T02:57:54.198Z,99344.80
2017-09-12T03:00:21.096Z,99342.48
2017-09-12T03:02:47.966Z,99350.48
2017-09-12T03:05:16.451Z,99350.31
2017-09-12T03:07:44.016Z,99353.75
2017-09-12T03:10:10.871Z,99351.56
2017-09-12T03:12:37.711Z,99349.53
2017-09-12T03:15:04.545Z,99362.22
2017-09-12T03:17:31.350Z,99363.03
2017-09-12T03:19:58.167Z,99362.63
2017-09-12T03:22:24.997Z,99370.94
2017-09-12T03:24:51.842Z,99378.20
2017-09-12T03:27:18.697Z,99379.41
2017-09-12T03:29:45.536Z,99379.95
2017-09-12T03:32:12.396Z,99382.13
2017-09-12T03:34:39.233Z,99373.90
2017-09-12T03:37:06.084Z,99382.05
2017-09-12T03:39:32.920Z,99379.11
2017-09-12T03:41:59.760Z,99379.16
2017-09-12T03:44:26.583Z,99380.62
2017-09-12T03:46:53.464Z,99379.95
2017-09-12T03:49:20.326Z,99388.48
2017-09-12T03:51:47.145Z,99393.86
2017-09-12T03:54:14.837Z,99399.69
2017-09-12T03:56:41.738Z,99402.88
2017-09-12T03:59:08.608Z,99404.60
2017-09-12T04:01:35.532Z,99412.52
2017-09-12T04:04:03.159Z,99407.06
2017-09-12T04:06:30.035Z,99413.38
2017-09-12T04:08:56.926Z,99419.64
2017-09-12T04:11:23.800Z,99424.22
2017-09-12T04:13:50.661Z,99418.37
2017-09-12T04:16:17.654Z,99429.58
2017-09-12T04:18:44.691Z,99427.95
2017-09-12T04:21:11.618Z,99430.61
2017-09-12T04:23:38.516Z,99434.75
2017-09-12T04:26:05.404Z,99429.70
2017-09-12T04:28:32.334Z,99430.61
2017-09-12T04:30:59.266Z,99434.69
2017-09-12T04:33:26.183Z,99439.09
2017-09-12T04:35:53.067Z,99439.80
2017-09-12T04:38:19.939Z,99442.46
2017-09-12T04:40:46.840Z,99448.69
2017-09-12T04:43:13.726Z,99446.50
2017-09-12T04:45:40.615Z,99443.64
2017-09-12T04:48:07.515Z,99437.25
2017-09-12T04:50:35.149Z,99450.63
2017-09-12T04:53:01.998Z,99454.43
2017-09-12T04:55:28.861Z,99461.89
2017-09-12T04:57:55.689Z,99468.37
2017-09-12T05:00:22.564Z,99472.94
2017-09-12T05:02:49.419Z,99476.95
2017-09-12T05:05:16.255Z,99481.38
2017-09-12T05:07:43.851Z,99481.33
2017-09-12T05:10:10.732Z,99486.22
2017-09-12T05:12:37.638Z,99483.13
2017-09-12T05:15:04.511Z,99490.77
2017-09-12T05:17:31.367Z,99494.28
2017-09-12T05:19:58.269Z,99500.36
2017-09-12T05:22:25.175Z,99503.44
2017-09-12T05:24:52.116Z,99505.86
2017-09-12T05:27:18.969Z,99518.16
2017-09-12T05:29:45.811Z,99523.55
2017-09-12T05:32:12.644Z,99516.92
2017-09-12T05:34:39.456Z,99530.39
2017-09-12T05:37:06.285Z,99529.49
2017-09-12T05:39:33.850Z,99531.55
2017-09-12T05:42:01.417Z,99528.95
2017-09-12T05:44:28.247Z,99538.82
2017-09-12T05:46:55.077Z,99533.42
2017-09-12T05:49:21.935Z,99539.92
2017-09-12T05:51:48.787Z,99545.23
2017-09-12T05:54:15.633Z,99551.16
2017-09-12T05:56:43.269Z,99550.31
2017-09-12T05:59:10.127Z,99552.91
2017-09-12T06:01:36.961Z,99561.89
2017-09-12T06:04:03.803Z,99570.03
2017-09-12T06:06:31.355Z,99570.04
2017-09-12T06:08:58.253Z,99566.44
2017-09-12T06:11:25.113Z,99570.60
2017-09-12T06:13:51.923Z,99573.41
2017-09-12T06:16:18.800Z,99571.30
2017-09-12T06:18:45.654Z,99570.10
2017-09-12T06:21:12.534Z,99577.36
2017-09-12T06:23:39.397Z,99568.92
2017-09-12T06:26:06.229Z,99582.28
2017-09-12T06:28:33.083Z,99582.96
2017-09-12T06:30:59.899Z,99586.44
2017-09-12T06:33:27.479Z,99589.14
2017-09-12T06:35:55.040Z,99589.67
2017-09-12T06:38:22.600Z,99596.55
2017-09-12T06:40:49.446Z,99597.58
2017-09-12T06:43:16.292Z,99596.30
2017-09-12T06:45:43.114Z,99596.27
2017-09-12T06:48:10.734Z,99599.55
2017-09-12T06:50:37.567Z,99605.73
2017-09-12T06:53:04.404Z,99606.27
2017-09-12T06:55:31.963Z,99615.16
2017-09-12T06:57:58.811Z,99606.16
2017-09-12T07:00:25.706Z,99608.33
2017-09-12T07:02:53.302Z,99625.03
2017-09-12T07:05:20.132Z,99627.31
2017-09-12T07:07:46.951Z,99621.98
2017-09-12T07:10:13.805Z,99632.10
2017-09-12T07:12:40.633Z,99626.99
2017-09-12T07:15:08.233Z,99633.48
2017-09-12T07:17:35.064Z,99636.17
2017-09-12T07:20:02.723Z,99641.94
2017-09-12T07:22:29.540Z,99649.38
2017-09-12T07:24:57.119Z,99651.64
2017-09-12T07:27:23.933Z,99655.85
2017-09-12T07:29:50.745Z,99649.63
2017-09-12T07:32:17.602Z,99658.66
2017-09-12T07:34:44.446Z,99661.95
2017-09-12T07:37:11.243Z,99664.58
2017-09-12T07:39:38.069Z,99672.67
2017-09-12T07:42:04.894Z,99676.64
2017-09-12T07:44:31.770Z,99678.66
2017-09-12T07:46:59.321Z,99682.50
2017-09-12T07:49:26.171Z,99695.34
2017-09-12T07:51:53.009Z,99695.39
2017-09-12T07:54:19.866Z,99699.17
2017-09-12T07:56:46.690Z,99699.32
2017-09-12T07:59:14.265Z,99704.13
2017-09-12T08:01:41.828Z,99719.34
2017-09-12T08:04:08.714Z,99715.94
2017-09-12T08:06:36.273Z,99719.79
2017-09-12T08:09:03.323Z,99727.16
2017-09-12T08:11:30.182Z,99733.52
2017-09-12T08:13:57.090Z,99727.85
2017-09-12T08:16:23.933Z,99739.63
2017-09-12T08:18:51.554Z,99740.53
2017-09-12T08:21:18.397Z,99745.64
2017-09-12T08:23:45.293Z,99749.27
2017-09-12T08:26:12.138Z,99746.81
2017-09-12T08:28:38.984Z,99746.53
2017-09-12T08:31:05.866Z,99749.59
2017-09-12T08:33:32.676Z,99752.84
2017-09-12T08:36:00.291Z,99747.84
2017-09-12T08:38:27.108Z,99757.95
2017-09-12T08:40:53.932Z,99762.56
2017-09-12T08:43:20.779Z,99763.23
2017-09-12T08:45:47.639Z,99756.33
2017-09-12T08:48:14.551Z,99759.39
2017-09-12T08:50:41.400Z,99771.44
2017-09-12T08:53:08.254Z,99759.50
2017-09-12T08:55:35.087Z,99763.73
2017-09-12T08:58:01.934Z,99764.48
2017-09-12T09:00:28.770Z,99766.02
2017-09-12T09:02:56.328Z,99763.95
2017-09-12T09:05:23.921Z,99765.55
2017-09-12T09:07:50.720Z,99765.42
2017-09-12T09:10:17.601Z,99778.42
2017-09-12T09:12:44.439Z,99771.83
2017-09-12T09:15:11.275Z,99782.41
2017-09-12T09:17:38.834Z,99781.38
2017-09-12T09:20:05.985Z,99779.98
2017-09-12T09:22:32.847Z,99781.84
2017-09-12T09:24:59.662Z,99775.19
2017-09-12T09:27:26.463Z,99786.98
2017-09-12T09:29:53.278Z,99782.14
2017-09-12T09:32:20.099Z,99786.16
2017-09-12T09:34:46.965Z,99795.13
2017-09-12T09:37:13.879Z,99794.45
2017-09-12T09:39:40.728Z,99796.94
2017-09-12T09:42:07.655Z,99797.86
2017-09-12T09:44:34.502Z,99802.23
2017-09-12T09:47:01.363Z,99799.41
2017-09-12T09:49:28.219Z,99801.98
2017-09-12T09:51:55.074Z,99807.62
2017-09-12T09:54:21.972Z,99805.34
2017-09-12T09:56:49.543Z,99810.53
2017-09-12T09:59:16.376Z,99811.94
2017-09-12T10:01:43.947Z,99805.45
2017-09-12T10:04:10.805Z,99812.95
2017-09-12T10:06:37.690Z,99817.81
2017-09-12T10:09:04.535Z,99815.85
2017-09-12T10:11:31.352Z,99811.56
2017-09-12T10:13:58.171Z,99818.94
2017-09-12T10:16:25.023Z,99817.81
2017-09-12T10:18:51.867Z,99807.97
2017-09-12T10:21:18.688Z,99821.55
2017-09-12T10:23:46.288Z,99815.44
2017-09-12T10:26:13.120Z,99821.30
2017-09-12T10:28:40.746Z,99825.45
2017-09-12T10:31:07.594Z,99820.33
2017-09-12T10:33:34.445Z,99812.53
2017-09-12T10:36:01.327Z,99806.65
2017-09-12T10:38:28.166Z,99815.58
2017-09-12T10:40:55.000Z,99822.80
2017-09-12T10:43:22.612Z,99831.43
2017-09-12T10:45:49.464Z,99835.78
2017-09-12T10:48:16.310Z,99835.59
2017-09-12T10:50:43.885Z,99836.90
2017-09-12T10:53:11.451Z,99833.56
2017-09-12T10:55:38.264Z,99838.55
2017-09-12T10:58:05.089Z,99835.16
2017-09-12T11:00:32.651Z,99836.41
2017-09-12T11:02:59.491Z,99832.47
2017-09-12T11:05:27.047Z,99842.59
2017-09-12T11:07:53.882Z,99836.30
2017-09-12T11:10:20.714Z,99835.41
2017-09-12T11:12:48.288Z,99836.34
2017-09-12T11:15:15.855Z,99835.53
2017-09-12T11:17:42.780Z,99847.28
2017-09-12T11:20:09.680Z,99841.04
2017-09-12T11:22:36.562Z,99848.61
2017-09-12T11:25:04.160Z,99853.63
2017-09-12T11:27:31.050Z,99852.23
2017-09-12T11:29:57.909Z,99871.52
2017-09-12T11:32:24.778Z,99885.13
2017-09-12T11:34:51.632Z,99887.10
2017-09-12T11:37:18.474Z,99877.56
2017-09-12T11:39:45.313Z,99878.37
2017-09-12T11:42:12.927Z,99881.22
2017-09-12T11:44:39.789Z,99876.34
2017-09-12T11:47:06.702Z,99880.36
2017-09-12T11:49:33.563Z,99884.02
2017-09-12T11:52:01.147Z,99888.09
2017-09-12T11:54:28.725Z,99874.31
2017-09-12T11:56:56.317Z,99879.55
2017-09-12T11:59:23.884Z,99881.71
2017-09-12T12:01:51.470Z,99884.30
2017-09-12T12:04:19.053Z,99881.72
2017-09-12T12:06:45.931Z,99885.22
2017-09-12T12:09:12.770Z,99886.11
2017-09-12T12:11:40.359Z,99885.42
2017-09-12T12:14:07.192Z,99873.81
2017-09-12T12:16:34.781Z,99875.00
2017-09-12T12:19:02.639Z,99876.61
2017-09-12T12:21:29.471Z,99880.23
2017-09-12T12:23:56.354Z,99881.48
2017-09-12T12:26:23.269Z,99883.12
2017-09-12T12:28:50.133Z,99888.42
2017-09-12T12:31:16.947Z,99873.84
2017-09-12T12:33:43.776Z,99883.19
2017-09-12T12:36:10.612Z,99877.88
2017-09-12T12:38:37.460Z,99886.73
2017-09-12T12:41:04.308Z,99882.35
2017-09-12T12:43:31.166Z,99894.98
2017-09-12T12:45:58.010Z,99894.31
2017-09-12T12:48:24.865Z,99893.28
2017-09-12T12:50:51.709Z,99891.30
2017-09-12T12:53:18.600Z,99909.62
2017-09-12T12:55:45.452Z,99910.70
2017-09-12T12:58:12.300Z,99919.83
2017-09-12T13:00:39.135Z,99919.98
2017-09-12T13:03:05.975Z,99915.43
2017-09-12T13:05:33.563Z,99912.34
2017-09-12T13:08:00.446Z,99919.51
2017-09-12T13:10:27.343Z,99916.83
2017-09-12T13:12:56.615Z,99908.44
2017-09-12T13:15:23.484Z,99921.30
2017-09-12T13:17:50.392Z,99937.70
2017-09-12T13:20:17.244Z,99917.25
2017-09-12T13:22:44.826Z,99916.72
2017-09-12T13:25:11.645Z,99932.69
2017-09-12T13:27:38.496Z,99928.28
2017-09-12T13:30:05.310Z,99936.12
2017-09-12T13:32:32.152Z,99938.66
2017-09-12T13:34:59.978Z,99939.37
2017-09-12T13:37:27.546Z,99948.64
2017-09-12T13:39:55.329Z,99941.26
2017-09-12T13:42:22.955Z,99950.73
2017-09-12T13:44:49.900Z,99952.23
2017-09-12T13:47:16.890Z,99948.53
2017-09-12T13:49:43.880Z,99955.51
2017-09-12T13:52:10.739Z,99950.03
2017-09-12T13:54:37.870Z,99942.63
2017-09-12T13:57:04.739Z,99957.50
2017-09-12T13:59:32.378Z,99955.58
2017-09-12T14:01:59.992Z,99946.53
2017-09-12T14:04:26.840Z,99954.25
2017-09-12T14:06:53.706Z,99947.59
2017-09-12T14:09:20.531Z,99954.77
2017-09-12T14:11:47.433Z,99961.80
2017-09-12T14:14:14.317Z,99960.95
2017-09-12T14:16:41.184Z,99962.48
2017-09-12T14:19:08.114Z,99966.52
2017-09-12T14:21:35.373Z,99971.56
2017-09-12T14:24:02.259Z,99966.38
2017-09-12T14:26:29.826Z,99972.83
2017-09-12T14:28:56.936Z,99968.47
2017-09-12T14:31:24.224Z,99977.34
2017-09-12T14:33:51.407Z,99973.62
2017-09-12T14:36:18.273Z,99979.37
2017-09-12T14:38:45.830Z,99980.61
2017-09-12T14:41:12.668Z,99986.40
2017-09-12T14:43:39.502Z,99992.52
2017-09-12T14:46:06.324Z,99988.23
2017-09-12T14:48:33.885Z,99987.85
2017-09-12T14:51:00.724Z,99992.58
2017-09-12T14:53:27.578Z,99998.95
2017-09-12T14:55:54.425Z,99999.42
2017-09-12T14:58:21.296Z,99997.78
2017-09-12T15:00:48.146Z,100004.23
2017-09-12T15:03:14.966Z,100009.86
2017-09-12T15:05:41.743Z,100001.70
2017-09-12T15:08:08.574Z,100014.41
2017-09-12T15:10:35.419Z,100003.87
2017-09-12T15:13:02.252Z,100009.27
2017-09-12T15:15:29.044Z,100016.20
2017-09-12T15:17:55.880Z,100021.23
2017-09-12T15:20:22.700Z,100023.44
2017-09-12T15:22:50.305Z,100024.31
2017-09-12T15:25:17.173Z,100017.31
2017-09-12T15:27:44.019Z,100017.38
2017-09-12T15:30:10.890Z,100015.66
2017-09-12T15:32:37.733Z,100017.63
2017-09-12T15:35:04.576Z,100011.48
2017-09-12T15:37:32.157Z,100016.30
2017-09-12T15:39:59.067Z,100017.95
2017-09-12T15:42:25.935Z,100019.74
2017-09-12T15:44:52.806Z,100026.98
2017-09-12T15:47:19.650Z,100027.36
2017-09-12T15:49:46.558Z,100028.75
2017-09-12T15:52:13.438Z,100024.84
2017-09-12T15:54:40.284Z,100028.83
2017-09-12T15:57:07.912Z,100030.66
2017-09-12T15:59:34.785Z,100025.24
2017-09-12T16:02:01.630Z,100022.56
2017-09-12T16:04:28.472Z,100027.52
2017-09-12T16:06:55.299Z,100031.87
2017-09-12T16:09:22.218Z,100030.73
2017-09-12T16:11:49.093Z,100040.22
2017-09-12T16:14:15.991Z,100040.33
2017-09-12T16:16:42.867Z,100036.81
2017-09-12T16:19:09.684Z,100041.28
2017-09-12T16:21:36.543Z,100039.91
2017-09-12T16:24:03.394Z,100037.39
2017-09-12T16:26:30.246Z,100040.98
2017-09-12T16:28:57.086Z,100044.90
2017-09-12T16:31:23.934Z,100047.23
2017-09-12T16:33:51.656Z,100042.36
2017-09-12T16:36:18.535Z,100043.48
2017-09-12T16:38:45.379Z,100048.89
2017-09-12T16:41:12.242Z,100049.34
2017-09-12T16:43:39.099Z,100057.82
2017-09-12T16:46:05.941Z,100053.23
2017-09-12T16:48:32.810Z,100056.40
2017-09-12T16:50:59.690Z,100064.36
2017-09-12T16:53:26.598Z,100054.36
2017-09-12T16:55:54.219Z,100051.91
2017-09-12T16:58:21.137Z,100051.18
2017-09-12T17:00:48.031Z,100048.72
2017-09-12T17:03:14.873Z,100050.46
2017-09-12T17:05:41.751Z,100056.30
2017-09-12T17:08:08.691Z,100055.29
2017-09-12T17:10:36.590Z,100057.13
2017-09-12T17:13:03.516Z,100052.77
2017-09-12T17:15:30.836Z,100054.73
2017-09-12T17:17:57.690Z,100057.13
2017-09-12T17:20:25.048Z,100061.09
2017-09-12T17:22:52.875Z,100068.66
2017-09-12T17:25:19.764Z,100072.04
2017-09-12T17:27:46.706Z,100074.37
2017-09-12T17:30:13.623Z,100070.94
2017-09-12T17:32:43.479Z,100074.17
2017-09-12T17:35:10.383Z,100077.83
2017-09-12T17:37:37.270Z,100071.42
2017-09-12T17:40:04.900Z,100071.83
2017-09-12T17:42:35.725Z,100081.33
2017-09-12T17:45:02.745Z,100078.67
2017-09-12T17:47:29.650Z,100084.97
2017-09-12T17:49:56.616Z,100079.06
2017-09-12T17:52:24.478Z,100083.14
2017-09-12T17:54:51.410Z,100085.27
2017-09-12T17:57:19.506Z,100084.34
2017-09-12T17:59:48.151Z,100092.20
2017-09-12T18:02:16.796Z,100093.34
2017-09-12T18:04:44.166Z,100085.82
2017-09-12T18:07:13.008Z,100092.55
2017-09-12T18:09:41.678Z,100093.20
2017-09-12T18:12:10.935Z,100097.58
2017-09-12T18:14:39.558Z,100099.56
2017-09-12T18:17:09.278Z,100097.47
2017-09-12T18:19:37.796Z,100096.83
2017-09-12T18:22:06.856Z,100097.83
2017-09-12T18:24:34.915Z,100107.29
2017-09-12T18:27:01.968Z,100109.84
2017-09-12T18:29:28.867Z,100109.03
2017-09-12T18:31:57.027Z,100115.13
2017-09-12T18:34:24.987Z,100115.78
2017-09-12T18:37:01.795Z,100116.20
2017-09-12T18:55:41.612Z,100132.42
2017-09-12T18:58:09.889Z,100134.66
2017-09-12T19:00:37.519Z,100129.34
2017-09-12T19:03:05.373Z,100135.75
2017-09-12T19:05:33.014Z,100140.68
2017-09-12T19:08:02.209Z,100137.44
2017-09-12T19:10:30.471Z,100136.58
2017-09-12T19:12:59.199Z,100138.64
2017-09-12T19:15:27.968Z,100141.59
2017-09-12T19:17:57.793Z,100150.46
2017-09-12T19:20:27.439Z,100148.95
2017-09-12T19:22:56.487Z,100147.55
2017-09-12T19:25:25.280Z,100140.27
2017-09-12T19:27:54.079Z,100140.39
2017-09-12T19:30:22.905Z,100145.27
2017-09-12T19:32:51.409Z,100147.00
2017-09-12T19:35:21.239Z,100146.98
2017-09-12T19:37:50.264Z,100145.86
2017-09-12T19:40:19.132Z,100141.86
2017-09-12T19:42:47.913Z,100145.28
2017-09-12T19:45:16.401Z,100142.23
2017-09-12T19:47:46.155Z,100145.16
2017-09-12T19:50:15.185Z,100147.48
2017-09-12T19:52:44.255Z,100151.92
2017-09-12T19:55:12.724Z,100154.84
2017-09-12T19:57:40.220Z,100154.06
2017-09-12T20:00:08.697Z,100150.36
2017-09-12T20:02:36.870Z,100148.63
2017-09-12T20:05:04.595Z,100142.02
2017-09-12T20:07:32.810Z,100141.87
2017-09-12T20:10:01.202Z,100137.42
2017-09-12T20:12:28.158Z,100136.48
2017-09-12T20:14:55.669Z,100147.08
2017-09-12T20:17:22.817Z,100150.35
2017-09-12T20:19:49.690Z,100141.50
2017-09-12T20:22:16.744Z,100146.80
2017-09-12T20:24:43.739Z,100151.45
2017-09-12T20:27:10.600Z,100155.37
2017-09-12T20:29:37.460Z,100154.01
2017-09-12T20:32:04.710Z,100152.13
2017-09-12T20:34:31.570Z,100148.73
2017-09-12T20:36:58.384Z,100150.45
2017-09-12T20:39:25.965Z,100146.45
2017-09-12T20:41:53.578Z,100143.23
2017-09-12T20:44:20.423Z,100141.85
2017-09-12T20:46:47.279Z,100140.70
2017-09-12T20:49:14.159Z,100139.92
2017-09-12T20:51:41.000Z,100144.28
2017-09-12T20:54:07.962Z,100148.52
2017-09-12T20:56:35.521Z,100148.73
2017-09-12T20:59:02.406Z,100143.38
2017-09-12T21:01:29.250Z,100149.65
2017-09-12T21:03:56.813Z,100141.79
2017-09-12T21:06:23.682Z,100155.78
2017-09-12T21:08:51.314Z,100154.48
2017-09-12T21:11:18.127Z,100157.70
2017-09-12T21:13:44.950Z,100162.52
2017-09-12T21:16:11.793Z,100159.59
2017-09-12T21:18:38.620Z,100161.31
2017-09-12T21:21:06.192Z,100153.16
2017-09-12T21:23:33.744Z,100148.94
2017-09-12T21:26:00.596Z,100144.21
2017-09-12T21:28:27.434Z,100137.92
2017-09-12T21:30:54.343Z,100148.02
2017-09-12T21:33:21.156Z,100148.69
2017-09-12T21:35:47.983Z,100137.50
2017-09-12T21:38:15.610Z,100150.38
2017-09-12T21:40:42.493Z,100142.81
2017-09-12T21:43:09.401Z,100147.38
2017-09-12T21:45:36.285Z,100149.55
2017-09-12T21:48:03.163Z,100147.37
2017-09-12T21:50:29.990Z,100154.97
2017-09-12T21:52:56.871Z,100142.86
2017-09-12T21:55:23.687Z,100137.68
2017-09-12T21:57:51.248Z,100136.13
2017-09-12T22:00:18.143Z,100135.38
2017-09-12T22:02:44.967Z,100125.98
2017-09-12T22:05:11.819Z,100110.05
2017-09-12T22:07:38.673Z,100119.44
2017-09-12T22:10:05.504Z,100114.85
2017-09-12T22:12:32.367Z,100103.11
2017-09-12T22:14:59.209Z,100103.83
2017-09-12T22:17:26.030Z,100109.53
2017-09-12T22:19:52.858Z,100082.86
2017-09-12T22:22:19.675Z,100088.42
2017-09-12T22:24:46.490Z,100096.31
2017-09-12T22:27:13.328Z,100087.95
2017-09-12T22:29:40.908Z,100084.14
2017-09-12T22:32:07.751Z,100090.06
2017-09-12T22:34:34.558Z,100089.77
2017-09-12T22:37:01.465Z,100085.08
2017-09-12T22:39:28.317Z,100075.92
2017-09-12T22:41:55.856Z,100071.84
2017-09-12T22:44:22.701Z,100064.03
2017-09-12T22:46:49.566Z,100055.37
2017-09-12T22:49:16.423Z,100046.37
2017-09-12T22:51:43.253Z,100044.69
2017-09-12T22:54:10.079Z,100036.77
2017-09-12T22:56:36.901Z,100038.86
2017-09-12T22:59:03.719Z,100036.88
2017-09-12T23:01:31.295Z,100029.20
2017-09-12T23:03:58.851Z,100021.88
2017-09-12T23:06:25.699Z,100017.47
2017-09-12T23:08:52.537Z,100008.90
2017-09-12T23:11:19.371Z,100005.59
2017-09-12T23:13:46.925Z,99987.72
2017-09-12T23:16:13.776Z,99985.36
2017-09-12T23:18:40.613Z,99966.38
2017-09-12T23:21:07.568Z,99930.99
2017-09-12T23:23:34.551Z,99924.06
2017-09-12T23:26:03.388Z,99927.81
2017-09-12T23:28:31.206Z,99919.45
2017-09-12T23:30:58.130Z,99911.83
2017-09-12T23:33:31.117Z,99898.62
2017-09-12T23:36:01.345Z,99897.88
2017-09-12T23:38:28.872Z,99893.14
2017-09-12T23:41:01.792Z,99885.02
2017-09-12T23:43:28.763Z,99884.27
2017-09-12T23:45:55.864Z,99879.61
2017-09-12T23:48:28.988Z,99871.83
2017-09-12T23:51:01.782Z,99865.98
2017-09-12T23:53:29.626Z,99866.72
2017-09-12T23:55:56.632Z,99862.66
2017-09-12T23:58:26.521Z,99861.91
